createdAt,value
2024-01-12T00:00:22.256Z,53.13
2024-01-12T00:01:22.304Z,50.00
2024-01-12T00:02:22.403Z,51.78
2024-01-12T00:03:22.468Z,52.02
2024-01-12T00:04:22.557Z,50.29
2024-01-12T00:05:22.628Z,50.31
2024-01-12T00:06:22.701Z,51.65
2024-01-12T00:07:22.690Z,52.12
2024-01-12T00:08:22.732Z,51.31
2024-01-12T00:09:22.787Z,50.84
2024-01-12T00:10:22.871Z,51.64
2024-01-12T00:11:22.945Z,51.82
2024-01-12T00:12:23.009Z,50.58
2024-01-12T00:13:23.033Z,52.07
2024-01-12T00:14:23.124Z,52.75
2024-01-12T00:15:23.139Z,52.06
2024-01-12T00:16:23.227Z,50.58
2024-01-12T00:17:23.310Z,50.66
2024-01-12T00:18:23.492Z,51.24
2024-01-12T00:19:23.327Z,50.64
2024-01-12T00:20:23.366Z,52.91
2024-01-12T00:21:23.390Z,50.49
2024-01-12T00:22:23.469Z,50.51
2024-01-12T00:23:23.514Z,50.75
2024-01-12T00:24:23.515Z,51.78
2024-01-12T00:25:23.480Z,50.00
2024-01-12T00:26:23.568Z,51.06
2024-01-12T00:27:23.577Z,52.26
2024-01-12T00:28:23.602Z,52.18
2024-01-12T00:29:23.741Z,50.07
2024-01-12T00:30:24.302Z,50.88
2024-01-12T00:31:23.668Z,52.04
2024-01-12T00:32:23.778Z,51.41
2024-01-12T00:33:23.917Z,51.01
2024-01-12T00:34:23.774Z,50.66
2024-01-12T00:35:23.814Z,50.79
2024-01-12T00:36:23.928Z,50.56
2024-01-12T00:37:23.833Z,52.81
2024-01-12T00:38:23.888Z,51.44
2024-01-12T00:39:23.929Z,52.93
2024-01-12T00:40:23.922Z,50.87
2024-01-12T00:41:24.099Z,52.69
2024-01-12T00:42:23.997Z,51.57
2024-01-12T00:43:24.097Z,50.35
2024-01-12T00:44:24.138Z,52.01
2024-01-12T00:45:24.154Z,51.64
2024-01-12T00:46:24.204Z,53.11
2024-01-12T00:47:24.365Z,51.67
2024-01-12T00:48:24.367Z,51.53
2024-01-12T00:49:24.430Z,50.85
2024-01-12T00:50:24.427Z,51.91
2024-01-12T00:51:24.418Z,50.76
2024-01-12T00:52:24.454Z,52.13
2024-01-12T00:53:24.614Z,52.38
2024-01-12T00:54:24.558Z,52.02
2024-01-12T00:55:24.643Z,51.34
2024-01-12T00:56:24.705Z,51.75
2024-01-12T00:57:24.689Z,50.29
2024-01-12T00:58:24.791Z,52.06
2024-01-12T00:59:24.840Z,52.52
2024-01-12T01:00:24.890Z,50.47
2024-01-12T01:01:25.842Z,51.92
2024-01-12T01:02:24.988Z,50.81
2024-01-12T01:03:25.030Z,50.81
2024-01-12T01:04:25.053Z,50.00
2024-01-12T01:05:25.120Z,51.00
2024-01-12T01:06:25.168Z,51.09
2024-01-12T01:07:25.176Z,51.22
2024-01-12T01:08:25.222Z,51.71
2024-01-12T01:09:25.264Z,51.23
2024-01-12T01:10:25.280Z,50.74
2024-01-12T01:11:25.341Z,50.98
2024-01-12T01:12:25.431Z,51.25
2024-01-12T01:13:25.377Z,51.51
2024-01-12T01:14:25.447Z,50.24
2024-01-12T01:15:25.505Z,50.85
2024-01-12T01:16:25.497Z,50.71
2024-01-12T01:17:25.610Z,51.04
2024-01-12T01:18:25.690Z,50.86
2024-01-12T01:19:25.777Z,52.36
2024-01-12T01:20:25.683Z,51.35
2024-01-12T01:21:25.686Z,50.80
2024-01-12T01:22:25.714Z,51.25
2024-01-12T01:23:25.777Z,51.31
2024-01-12T01:24:25.754Z,51.34
2024-01-12T01:25:25.786Z,51.60
2024-01-12T01:26:25.862Z,51.57
2024-01-12T01:27:25.876Z,51.53
2024-01-12T01:28:25.924Z,51.08
2024-01-12T01:29:25.961Z,50.38
2024-01-12T01:30:25.963Z,52.96
2024-01-12T01:31:26.014Z,50.82
2024-01-12T01:32:26.416Z,52.27
2024-01-12T01:33:26.239Z,52.50
2024-01-12T01:34:26.228Z,51.75
2024-01-12T01:35:26.109Z,50.72
2024-01-12T01:36:26.177Z,51.37
2024-01-12T01:37:26.196Z,51.14
2024-01-12T01:38:26.289Z,50.00
2024-01-12T01:39:26.267Z,52.33
2024-01-12T01:40:26.280Z,50.62
2024-01-12T01:41:26.305Z,50.87
2024-01-12T01:42:26.322Z,50.56
2024-01-12T01:43:26.345Z,50.00
2024-01-12T01:44:26.566Z,51.31
2024-01-12T01:45:26.411Z,52.73
2024-01-12T01:46:26.426Z,52.93
2024-01-12T01:47:26.564Z,51.22
2024-01-12T01:48:26.439Z,51.93
2024-01-12T01:49:26.555Z,52.75
2024-01-12T01:50:26.530Z,52.42
2024-01-12T01:51:26.556Z,50.95
2024-01-12T01:52:26.575Z,51.53
2024-01-12T01:53:26.617Z,51.46
2024-01-12T01:54:26.625Z,51.54
2024-01-12T01:55:26.726Z,51.67
2024-01-12T01:56:26.748Z,53.15
2024-01-12T01:57:26.734Z,53.37
2024-01-12T01:58:26.755Z,55.51
2024-01-12T01:59:26.844Z,52.56
2024-01-12T02:00:26.850Z,54.15
2024-01-12T02:01:26.832Z,55.47
2024-01-12T02:02:26.906Z,56.76
2024-01-12T02:03:28.983Z,54.44
2024-01-12T02:04:27.055Z,55.50
2024-01-12T02:05:27.238Z,54.83
2024-01-12T02:06:27.302Z,54.70
2024-01-12T02:07:27.174Z,54.50
2024-01-12T02:08:27.229Z,55.47
2024-01-12T02:09:27.278Z,52.13
2024-01-12T02:10:27.282Z,53.51
2024-01-12T02:11:27.322Z,55.44
2024-01-12T02:12:27.279Z,54.84
2024-01-12T02:13:27.292Z,53.54
2024-01-12T02:14:27.327Z,56.71
2024-01-12T02:15:27.446Z,53.00
2024-01-12T02:16:27.581Z,54.25
2024-01-12T02:17:27.648Z,54.82
2024-01-12T02:18:27.743Z,53.97
2024-01-12T02:19:27.673Z,51.42
2024-01-12T02:20:27.659Z,53.75
2024-01-12T02:21:27.717Z,54.73
2024-01-12T02:22:27.855Z,54.98
2024-01-12T02:23:27.996Z,57.32
2024-01-12T02:24:28.042Z,53.45
2024-01-12T02:25:28.120Z,53.06
2024-01-12T02:26:28.243Z,50.00
2024-01-12T02:27:28.251Z,55.73
2024-01-12T02:28:28.240Z,54.85
2024-01-12T02:29:28.262Z,54.47
2024-01-12T02:30:28.356Z,55.01
2024-01-12T02:31:28.269Z,52.10
2024-01-12T02:32:28.405Z,51.78
2024-01-12T02:33:28.496Z,53.48
2024-01-12T02:34:28.482Z,53.96
2024-01-12T02:35:28.509Z,53.29
2024-01-12T02:36:28.539Z,51.96
2024-01-12T02:37:28.566Z,51.78
2024-01-12T02:38:28.550Z,54.49
2024-01-12T02:39:28.619Z,53.30
2024-01-12T02:40:28.636Z,54.00
2024-01-12T02:41:28.673Z,52.28
2024-01-12T02:42:28.633Z,52.97
2024-01-12T02:43:28.689Z,55.52
2024-01-12T02:44:28.753Z,52.92
2024-01-12T02:45:28.761Z,51.24
2024-01-12T02:46:28.853Z,53.06
2024-01-12T02:47:28.984Z,51.75
2024-01-12T02:48:29.213Z,53.75
2024-01-12T02:49:29.074Z,52.86
2024-01-12T02:50:29.215Z,51.63
2024-01-12T02:51:29.121Z,53.35
2024-01-12T02:52:29.093Z,52.14
2024-01-12T02:53:29.144Z,51.15
2024-01-12T02:54:29.239Z,52.49
2024-01-12T02:55:29.350Z,55.47
2024-01-12T02:56:29.510Z,55.65
2024-01-12T02:57:29.535Z,53.81
2024-01-12T02:58:29.497Z,51.48
2024-01-12T02:59:29.525Z,52.45
2024-01-12T03:00:29.614Z,55.47
2024-01-12T03:01:29.659Z,50.00
2024-01-12T03:02:29.664Z,52.03
2024-01-12T03:03:29.706Z,51.69
2024-01-12T03:04:29.638Z,51.82
2024-01-12T03:05:29.824Z,55.46
2024-01-12T03:06:29.798Z,54.86
2024-01-12T03:07:29.707Z,53.72
2024-01-12T03:08:29.696Z,52.01
2024-01-12T03:09:29.722Z,52.37
2024-01-12T03:10:29.805Z,54.95
2024-01-12T03:11:29.801Z,50.00
2024-01-12T03:12:29.798Z,50.78
2024-01-12T03:13:29.819Z,51.23
2024-01-12T03:14:29.854Z,51.79
2024-01-12T03:15:29.874Z,55.28
2024-01-12T03:16:29.909Z,54.56
2024-01-12T03:17:30.132Z,52.42
2024-01-12T03:18:30.207Z,54.74
2024-01-12T03:19:30.154Z,59.21
2024-01-12T03:20:30.128Z,55.88
2024-01-12T03:21:30.201Z,55.54
2024-01-12T03:22:30.181Z,55.43
2024-01-12T03:23:30.214Z,53.79
2024-01-12T03:24:30.198Z,56.16
2024-01-12T03:25:30.188Z,52.64
2024-01-12T03:26:30.290Z,53.15
2024-01-12T03:27:30.312Z,50.93
2024-01-12T03:28:30.421Z,54.72
2024-01-12T03:29:30.542Z,51.63
2024-01-12T03:30:30.625Z,52.73
2024-01-12T03:31:30.732Z,53.57
2024-01-12T03:32:30.842Z,51.64
2024-01-12T03:33:30.949Z,51.96
2024-01-12T03:34:31.161Z,55.98
2024-01-12T03:35:31.164Z,53.88
2024-01-12T03:36:31.193Z,52.63
2024-01-12T03:37:31.165Z,53.52
2024-01-12T03:38:31.231Z,53.45
2024-01-12T03:39:31.185Z,50.26
2024-01-12T03:40:31.203Z,51.38
2024-01-12T03:41:31.300Z,51.58
2024-01-12T03:42:31.276Z,55.34
2024-01-12T03:43:31.379Z,55.08
2024-01-12T03:44:31.507Z,56.42
2024-01-12T03:45:31.581Z,55.44
2024-01-12T03:46:31.676Z,57.62
2024-01-12T03:47:31.820Z,54.11
2024-01-12T03:48:31.910Z,52.55
2024-01-12T03:49:31.868Z,51.89
2024-01-12T03:50:31.912Z,52.54
2024-01-12T03:51:31.882Z,53.48
2024-01-12T03:52:31.903Z,53.08
2024-01-12T03:53:31.916Z,50.00
2024-01-12T03:54:31.960Z,51.04
2024-01-12T03:55:31.975Z,53.64
2024-01-12T03:56:32.005Z,52.94
2024-01-12T03:57:32.040Z,56.71
2024-01-12T03:58:32.046Z,50.08
2024-01-12T03:59:32.125Z,54.40
2024-01-12T04:00:32.149Z,50.00
2024-01-12T04:01:32.184Z,54.62
2024-01-12T04:02:32.292Z,52.87
2024-01-12T04:03:32.265Z,54.65
2024-01-12T04:04:32.337Z,53.91
2024-01-12T04:05:32.412Z,54.07
2024-01-12T04:06:32.411Z,55.33
2024-01-12T04:07:32.300Z,50.70
2024-01-12T04:08:32.366Z,50.00
2024-01-12T04:09:32.373Z,52.79
2024-01-12T04:10:32.371Z,52.70
2024-01-12T04:11:32.464Z,51.04
2024-01-12T04:12:32.435Z,52.90
2024-01-12T04:13:32.422Z,52.20
2024-01-12T04:14:36.250Z,53.32
2024-01-12T04:15:32.459Z,52.77
2024-01-12T04:16:32.476Z,51.27
2024-01-12T04:17:32.542Z,53.80
2024-01-12T04:18:32.602Z,49.82
2024-01-12T04:19:32.510Z,49.68
2024-01-12T04:20:32.567Z,50.20
2024-01-12T04:21:32.475Z,53.69
2024-01-12T04:22:32.511Z,55.23
2024-01-12T04:23:32.519Z,52.41
2024-01-12T04:24:32.484Z,51.19
2024-01-12T04:25:32.479Z,52.46
2024-01-12T04:26:32.580Z,55.00
2024-01-12T04:27:32.509Z,51.81
2024-01-12T04:28:32.532Z,55.39
2024-01-12T04:29:32.493Z,52.84
2024-01-12T04:30:32.539Z,51.18
2024-01-12T04:31:32.482Z,58.09
2024-01-12T04:32:32.577Z,52.87
2024-01-12T04:33:32.799Z,51.41
2024-01-12T04:34:32.576Z,52.76
2024-01-12T04:35:32.610Z,51.33
2024-01-12T04:36:32.511Z,55.10
2024-01-12T04:37:32.531Z,51.84
2024-01-12T04:38:32.555Z,52.00
2024-01-12T04:39:32.526Z,50.88
2024-01-12T04:40:32.530Z,51.69
2024-01-12T04:41:32.565Z,50.95
2024-01-12T04:42:32.532Z,52.48
2024-01-12T04:43:32.500Z,53.53
2024-01-12T04:44:40.321Z,50.00
2024-01-12T04:45:41.438Z,50.00
2024-01-12T04:46:40.295Z,50.00
2024-01-12T04:47:40.360Z,50.00
2024-01-12T04:48:40.460Z,50.00
2024-01-12T04:49:40.350Z,51.48
2024-01-12T04:50:40.307Z,51.03
2024-01-12T04:51:40.289Z,50.59
2024-01-12T04:52:40.314Z,53.63
2024-01-12T04:53:40.327Z,51.08
2024-01-12T04:54:40.345Z,50.00
2024-01-12T04:55:40.325Z,54.83
2024-01-12T04:56:40.360Z,53.70
2024-01-12T04:57:40.324Z,52.09
2024-01-12T04:58:40.331Z,51.91
2024-01-12T04:59:40.406Z,53.26
2024-01-12T05:00:40.378Z,51.85
2024-01-12T05:01:40.366Z,51.01
2024-01-12T05:02:40.429Z,52.36
2024-01-12T05:03:40.397Z,52.84
2024-01-12T05:04:40.410Z,53.40
2024-01-12T05:05:40.504Z,51.58
2024-01-12T05:06:40.530Z,54.14
2024-01-12T05:07:40.495Z,53.53
2024-01-12T05:08:40.579Z,50.07
2024-01-12T05:09:40.517Z,51.25
2024-01-12T05:10:40.556Z,51.49
2024-01-12T05:11:40.616Z,50.84
2024-01-12T05:12:40.645Z,51.17
2024-01-12T05:13:40.666Z,53.32
2024-01-12T05:14:42.159Z,52.28
2024-01-12T05:15:40.763Z,52.45
2024-01-12T05:16:40.764Z,55.61
2024-01-12T05:17:40.871Z,50.34
2024-01-12T05:18:40.941Z,52.52
2024-01-12T05:19:40.954Z,50.41
2024-01-12T05:20:40.983Z,50.00
2024-01-12T05:21:40.961Z,50.66
2024-01-12T05:22:40.954Z,51.01
2024-01-12T05:23:41.031Z,50.77
2024-01-12T05:24:41.024Z,52.11
2024-01-12T05:25:41.086Z,52.74
2024-01-12T05:26:41.121Z,50.99
2024-01-12T05:27:41.147Z,52.95
2024-01-12T05:28:41.208Z,54.06
2024-01-12T05:29:41.260Z,51.41
2024-01-12T05:30:41.282Z,52.72
2024-01-12T05:31:41.302Z,53.38
2024-01-12T05:32:41.424Z,52.99
2024-01-12T05:33:41.508Z,53.88
2024-01-12T05:34:41.464Z,54.73
2024-01-12T05:35:41.475Z,51.45
2024-01-12T05:36:41.485Z,52.91
2024-01-12T05:37:41.510Z,50.55
2024-01-12T05:38:41.612Z,51.56
2024-01-12T05:39:41.619Z,53.41
2024-01-12T05:40:41.623Z,55.49
2024-01-12T05:41:41.681Z,53.51
2024-01-12T05:42:41.725Z,52.56
2024-01-12T05:43:41.765Z,51.24
2024-01-12T05:44:41.847Z,53.59
2024-01-12T05:45:41.873Z,52.08
2024-01-12T05:46:41.911Z,51.40
2024-01-12T05:47:42.043Z,51.54
2024-01-12T05:48:42.073Z,53.14
2024-01-12T05:49:42.059Z,55.51
2024-01-12T05:50:42.105Z,51.09
2024-01-12T05:51:42.098Z,52.87
2024-01-12T05:52:42.212Z,51.81
2024-01-12T05:53:42.232Z,52.48
2024-01-12T05:54:42.199Z,52.25
2024-01-12T05:55:42.237Z,51.40
2024-01-12T05:56:42.298Z,52.28
2024-01-12T05:57:42.324Z,51.84
2024-01-12T05:58:42.365Z,54.72
2024-01-12T05:59:42.436Z,53.19
2024-01-12T06:00:42.466Z,53.10
2024-01-12T06:02:04.997Z,54.83
2024-01-12T06:02:42.513Z,54.99
2024-01-12T06:03:42.542Z,55.82
2024-01-12T06:04:42.525Z,56.85
2024-01-12T06:05:42.628Z,56.65
2024-01-12T06:06:42.656Z,56.79
2024-01-12T06:07:42.500Z,61.36
2024-01-12T06:08:42.568Z,61.27
2024-01-12T06:09:42.496Z,61.65
2024-01-12T06:10:42.548Z,57.48
2024-01-12T06:11:42.620Z,57.32
2024-01-12T06:12:42.498Z,56.78
2024-01-12T06:13:42.582Z,58.14
2024-01-12T06:14:42.529Z,57.52
2024-01-12T06:15:42.535Z,57.15
2024-01-12T06:16:42.536Z,56.50
2024-01-12T06:17:42.678Z,58.00
2024-01-12T06:18:42.695Z,58.08
2024-01-12T06:19:42.571Z,55.43
2024-01-12T06:20:42.519Z,54.38
2024-01-12T06:21:42.530Z,54.23
2024-01-12T06:22:42.513Z,56.30
2024-01-12T06:23:42.569Z,57.15
2024-01-12T06:24:42.650Z,55.51
2024-01-12T06:25:42.712Z,57.21
2024-01-12T06:26:42.749Z,57.42
2024-01-12T06:27:42.790Z,55.50
2024-01-12T06:28:42.815Z,56.01
2024-01-12T06:29:42.862Z,54.97
2024-01-12T06:30:42.976Z,52.55
2024-01-12T06:31:42.922Z,52.38
2024-01-12T06:32:43.183Z,52.23
2024-01-12T06:33:43.026Z,51.88
2024-01-12T06:34:43.090Z,50.00
2024-01-12T06:35:43.145Z,50.32
2024-01-12T06:36:43.178Z,50.59
2024-01-12T06:37:43.223Z,50.94
2024-01-12T06:38:43.358Z,50.21
2024-01-12T06:39:43.977Z,51.46
2024-01-12T06:40:44.445Z,50.72
2024-01-12T06:41:43.599Z,50.32
2024-01-12T06:42:43.478Z,52.80
2024-01-12T06:43:43.622Z,51.63
2024-01-12T06:44:43.529Z,52.33
2024-01-12T06:46:06.105Z,53.09
2024-01-12T06:46:44.798Z,53.26
2024-01-12T06:47:43.711Z,54.38
2024-01-12T06:48:43.635Z,54.67
2024-01-12T06:49:43.592Z,56.23
2024-01-12T06:50:43.615Z,53.96
2024-01-12T06:51:43.588Z,58.93
2024-01-12T06:52:43.602Z,66.34
2024-01-12T06:53:43.584Z,63.96
2024-01-12T06:54:43.551Z,66.65
2024-01-12T06:55:44.072Z,72.12
2024-01-12T06:56:43.591Z,81.15
2024-01-12T06:57:43.559Z,88.66
2024-01-12T06:58:43.641Z,98.94
2024-01-12T06:59:43.648Z,101.46
2024-01-12T07:00:44.139Z,111.18
2024-01-12T07:01:43.614Z,119.94
2024-01-12T07:02:43.584Z,123.84
2024-01-12T07:03:43.612Z,130.84
2024-01-12T07:04:43.631Z,141.64
2024-01-12T07:05:44.168Z,146.84
2024-01-12T07:06:43.830Z,152.32
2024-01-12T07:07:43.742Z,157.59
2024-01-12T07:08:44.006Z,158.84
2024-01-12T07:09:43.943Z,161.99
2024-01-12T07:10:43.966Z,165.83
2024-01-12T07:11:44.127Z,172.88
2024-01-12T07:12:44.059Z,178.58
2024-01-12T07:13:44.114Z,181.27
2024-01-12T07:14:44.230Z,183.65
2024-01-12T07:15:44.273Z,187.06
2024-01-12T07:16:44.348Z,193.05
2024-01-12T07:17:44.502Z,196.82
2024-01-12T07:18:44.626Z,200.00
2024-01-12T07:19:44.533Z,201.02
2024-01-12T07:20:44.695Z,199.78
2024-01-12T07:21:44.627Z,199.23
2024-01-12T07:22:44.671Z,197.91
2024-01-12T07:23:44.788Z,199.91
2024-01-12T07:24:44.744Z,199.41
2024-01-12T07:25:44.869Z,200.00
2024-01-12T07:26:44.894Z,197.65
2024-01-12T07:27:47.006Z,200.23
2024-01-12T07:28:45.002Z,198.94
2024-01-12T07:29:45.136Z,200.00
2024-01-12T07:30:45.171Z,199.69
2024-01-12T07:31:45.200Z,199.64
2024-01-12T07:32:45.424Z,198.47
2024-01-12T07:33:45.523Z,197.23
2024-01-12T07:34:46.172Z,198.81
2024-01-12T07:35:45.626Z,200.00
2024-01-12T07:36:45.489Z,198.25
2024-01-12T07:37:46.122Z,197.96
2024-01-12T07:38:46.145Z,201.87
2024-01-12T07:39:45.600Z,204.07
2024-01-12T07:40:46.135Z,198.49
2024-01-12T07:41:45.736Z,185.27
2024-01-12T07:42:45.707Z,170.81
2024-01-12T07:43:45.751Z,159.07
2024-01-12T07:44:45.831Z,150.84
2024-01-12T07:45:45.834Z,146.14
2024-01-12T07:46:46.123Z,140.99
2024-01-12T07:47:45.953Z,139.18
2024-01-12T07:48:46.061Z,134.00
2024-01-12T07:49:45.968Z,131.68
2024-01-12T07:50:46.128Z,130.88
2024-01-12T07:51:46.131Z,133.47
2024-01-12T07:52:46.110Z,134.08
2024-01-12T07:53:46.224Z,133.55
2024-01-12T07:54:46.287Z,131.00
2024-01-12T07:55:46.231Z,133.84
2024-01-12T07:56:46.346Z,136.71
2024-01-12T07:57:46.507Z,140.96
2024-01-12T07:58:46.344Z,143.50
2024-01-12T07:59:46.395Z,145.51
2024-01-12T08:00:46.357Z,145.45
2024-01-12T08:01:46.635Z,147.00
2024-01-12T08:02:46.526Z,150.12
2024-01-12T08:03:46.597Z,151.79
2024-01-12T08:04:46.692Z,152.48
2024-01-12T08:05:47.213Z,153.24
2024-01-12T08:06:46.835Z,153.30
2024-01-12T08:07:46.833Z,154.20
2024-01-12T08:08:46.933Z,155.15
2024-01-12T08:09:46.893Z,156.21
2024-01-12T08:10:46.951Z,158.24
2024-01-12T08:11:47.094Z,158.42
2024-01-12T08:12:47.026Z,160.97
2024-01-12T08:13:47.066Z,161.87
2024-01-12T08:14:47.209Z,163.98
2024-01-12T08:15:47.096Z,166.07
2024-01-12T08:16:47.688Z,166.80
2024-01-12T08:17:47.337Z,165.87
2024-01-12T08:18:47.222Z,165.41
2024-01-12T08:19:47.162Z,168.29
2024-01-12T08:20:47.248Z,170.39
2024-01-12T08:21:52.928Z,171.59
2024-01-12T08:22:48.213Z,171.66
2024-01-12T08:23:47.248Z,172.34
2024-01-12T08:24:47.346Z,173.69
2024-01-12T08:25:47.244Z,176.76
2024-01-12T08:26:47.325Z,180.50
2024-01-12T08:27:47.273Z,183.65
2024-01-12T08:28:47.232Z,184.34
2024-01-12T08:29:47.299Z,184.90
2024-01-12T08:30:47.281Z,184.44
2024-01-12T08:31:47.605Z,185.67
2024-01-12T08:32:47.392Z,189.22
2024-01-12T08:33:47.375Z,193.79
2024-01-12T08:34:47.322Z,197.67
2024-01-12T08:35:47.359Z,203.50
2024-01-12T08:36:47.293Z,204.13
2024-01-12T08:37:47.252Z,199.10
2024-01-12T08:38:47.300Z,203.15
2024-01-12T08:39:47.312Z,199.32
2024-01-12T08:40:47.328Z,199.03
2024-01-12T08:41:47.643Z,198.36
2024-01-12T08:42:47.428Z,196.94
2024-01-12T08:43:48.010Z,194.43
2024-01-12T08:44:47.637Z,193.51
2024-01-12T08:45:48.125Z,191.97
2024-01-12T08:46:47.599Z,193.23
2024-01-12T08:47:47.757Z,193.20
2024-01-12T08:48:47.772Z,191.44
2024-01-12T08:49:47.778Z,192.06
2024-01-12T08:50:47.755Z,192.51
2024-01-12T08:51:47.806Z,193.54
2024-01-12T08:52:47.818Z,194.11
2024-01-12T08:53:47.972Z,194.19
2024-01-12T08:54:47.828Z,194.20
2024-01-12T08:55:47.838Z,194.11
2024-01-12T08:56:47.949Z,194.22
2024-01-12T08:57:47.895Z,194.76
2024-01-12T08:58:47.910Z,195.14
2024-01-12T08:59:47.948Z,193.97
2024-01-12T09:00:47.932Z,193.57
2024-01-12T09:01:47.920Z,194.83
2024-01-12T09:02:47.994Z,194.57
2024-01-12T09:04:48.054Z,194.51
2024-01-12T09:05:48.060Z,193.35
2024-01-12T09:06:48.167Z,195.03
2024-01-12T09:07:48.064Z,196.07
2024-01-12T09:08:48.306Z,196.34
2024-01-12T09:09:48.189Z,197.11
2024-01-12T09:10:49.190Z,197.98
2024-01-12T09:11:48.332Z,197.85
2024-01-12T09:12:48.353Z,198.28
2024-01-12T09:13:48.473Z,199.19
2024-01-12T09:14:48.555Z,199.48
2024-01-12T09:15:48.671Z,199.68
2024-01-12T09:16:49.224Z,198.71
2024-01-12T09:17:48.759Z,199.10
2024-01-12T09:18:49.036Z,199.16
2024-01-12T09:19:49.016Z,199.33
2024-01-12T09:20:49.067Z,198.50
2024-01-12T09:21:48.976Z,198.28
2024-01-12T09:22:49.050Z,197.57
2024-01-12T09:23:49.129Z,198.79
2024-01-12T09:24:49.162Z,197.55
2024-01-12T09:25:51.058Z,198.83
2024-01-12T09:26:49.818Z,198.20
2024-01-12T09:27:49.223Z,198.55
2024-01-12T09:28:49.271Z,198.68
2024-01-12T09:29:49.289Z,198.48
2024-01-12T09:30:49.293Z,199.70
2024-01-12T09:31:49.658Z,199.84
2024-01-12T09:32:49.346Z,199.68
2024-01-12T09:33:49.464Z,200.00
2024-01-12T09:34:49.351Z,198.81
2024-01-12T09:35:49.309Z,199.09
2024-01-12T09:36:49.678Z,198.96
2024-01-12T09:37:49.268Z,198.45
2024-01-12T09:38:49.298Z,199.14
2024-01-12T09:39:49.264Z,196.34
2024-01-12T09:40:49.261Z,196.00
2024-01-12T09:41:49.735Z,195.30
2024-01-12T09:42:49.288Z,195.83
2024-01-12T09:43:50.154Z,194.29
2024-01-12T09:44:55.014Z,191.98
2024-01-12T09:45:50.302Z,192.03
2024-01-12T09:46:49.315Z,191.46
2024-01-12T09:47:49.553Z,190.42
2024-01-12T09:48:49.409Z,189.83
2024-01-12T09:49:49.333Z,188.60
2024-01-12T09:50:49.459Z,195.61
2024-01-12T09:51:49.708Z,196.05
2024-01-12T09:52:49.390Z,187.62
2024-01-12T09:53:50.256Z,177.91
2024-01-12T09:54:49.355Z,169.07
2024-01-12T09:55:49.314Z,165.55
2024-01-12T09:56:49.790Z,163.20
2024-01-12T09:57:49.430Z,163.10
2024-01-12T09:58:49.500Z,160.17
2024-01-12T09:59:49.804Z,158.77
2024-01-12T10:00:49.624Z,158.13
2024-01-12T10:01:49.710Z,154.62
2024-01-12T10:02:49.640Z,158.53
2024-01-12T10:03:49.655Z,163.70
2024-01-12T10:04:49.678Z,157.32
2024-01-12T10:05:49.809Z,148.30
2024-01-12T10:06:49.815Z,139.11
2024-01-12T10:07:49.814Z,132.06
2024-01-12T10:08:49.968Z,123.36
2024-01-12T10:09:49.875Z,122.61
2024-01-12T10:10:49.963Z,122.61
2024-01-12T10:11:51.365Z,122.23
2024-01-12T10:12:50.734Z,119.22
2024-01-12T10:13:50.058Z,115.82
2024-01-12T10:14:50.015Z,112.80
2024-01-12T10:15:50.059Z,112.22
2024-01-12T10:16:50.132Z,112.32
2024-01-12T10:17:50.378Z,112.04
2024-01-12T10:18:50.448Z,110.96
2024-01-12T10:19:50.268Z,110.14
2024-01-12T10:20:50.355Z,108.38
2024-01-12T10:21:50.384Z,106.86
2024-01-12T10:22:50.380Z,106.43
2024-01-12T10:23:50.465Z,107.45
2024-01-12T10:24:50.491Z,107.22
2024-01-12T10:25:50.559Z,105.65
2024-01-12T10:26:50.627Z,105.33
2024-01-12T10:27:50.632Z,104.76
2024-01-12T10:28:50.721Z,104.12
2024-01-12T10:29:51.677Z,103.97
2024-01-12T10:30:50.791Z,103.54
2024-01-12T10:31:50.812Z,102.47
2024-01-12T10:32:50.944Z,102.08
2024-01-12T10:33:51.047Z,102.09
2024-01-12T10:34:51.024Z,99.19
2024-01-12T10:35:51.017Z,98.35
2024-01-12T10:36:51.125Z,98.86
2024-01-12T10:37:51.715Z,98.91
2024-01-12T10:38:51.102Z,99.43
2024-01-12T10:39:51.186Z,98.67
2024-01-12T10:40:51.203Z,98.39
2024-01-12T10:41:51.207Z,96.86
2024-01-12T10:42:51.751Z,95.41
2024-01-12T10:43:51.334Z,94.10
2024-01-12T10:44:51.437Z,92.43
2024-01-12T10:45:51.387Z,90.77
2024-01-12T10:46:51.460Z,87.93
2024-01-12T10:47:51.753Z,89.27
2024-01-12T10:48:51.595Z,88.17
2024-01-12T10:49:51.803Z,85.58
2024-01-12T10:50:51.688Z,84.62
2024-01-12T10:51:52.585Z,85.80
2024-01-12T10:52:51.606Z,87.24
2024-01-12T10:53:51.648Z,87.53
2024-01-12T10:54:51.627Z,87.69
2024-01-12T10:55:51.678Z,87.81
2024-01-12T10:56:51.788Z,89.10
2024-01-12T10:57:52.254Z,93.74
2024-01-12T10:58:51.894Z,92.46
2024-01-12T10:59:52.002Z,92.85
2024-01-12T11:00:52.131Z,94.60
2024-01-12T11:01:52.135Z,97.64
2024-01-12T11:02:52.111Z,97.60
2024-01-12T11:03:52.199Z,99.65
2024-01-12T11:04:52.254Z,101.31
2024-01-12T11:05:52.391Z,101.71
2024-01-12T11:06:54.024Z,104.92
2024-01-12T11:07:52.505Z,105.08
2024-01-12T11:08:52.484Z,107.57
2024-01-12T11:09:52.272Z,109.08
2024-01-12T11:10:52.300Z,110.35
2024-01-12T11:11:52.268Z,111.62
2024-01-12T11:12:55.983Z,113.17
2024-01-12T11:13:53.289Z,113.31
2024-01-12T11:14:52.345Z,113.85
2024-01-12T11:15:52.586Z,114.92
2024-01-12T11:16:52.309Z,117.73
2024-01-12T11:17:52.812Z,119.78
2024-01-12T11:18:52.448Z,122.82
2024-01-12T11:19:52.293Z,124.04
2024-01-12T11:20:52.379Z,125.65
2024-01-12T11:21:52.316Z,126.56
2024-01-12T11:22:52.270Z,126.77
2024-01-12T11:23:52.770Z,127.53
2024-01-12T11:24:53.635Z,128.76
2024-01-12T11:25:52.498Z,129.39
2024-01-12T11:26:52.591Z,129.25
2024-01-12T11:27:52.741Z,130.06
2024-01-12T11:28:52.657Z,130.17
2024-01-12T11:29:52.723Z,130.86
2024-01-12T11:30:52.943Z,134.66
2024-01-12T11:31:52.784Z,135.77
2024-01-12T11:32:52.957Z,138.28
2024-01-12T11:33:53.315Z,140.43
2024-01-12T11:34:53.150Z,143.75
2024-01-12T11:35:53.187Z,146.68
2024-01-12T11:36:53.026Z,148.44
2024-01-12T11:37:53.086Z,149.82
2024-01-12T11:38:53.102Z,150.04
2024-01-12T11:39:53.066Z,144.61
2024-01-12T11:40:53.065Z,145.89
2024-01-12T11:41:53.105Z,149.84
2024-01-12T11:42:53.110Z,151.11
2024-01-12T11:43:53.162Z,150.24
2024-01-12T11:44:53.197Z,150.00
2024-01-12T11:45:53.192Z,145.63
2024-01-12T11:46:53.210Z,146.34
2024-01-12T11:47:53.323Z,147.93
2024-01-12T11:48:54.079Z,146.88
2024-01-12T11:49:53.322Z,148.38
2024-01-12T11:50:53.393Z,148.38
2024-01-12T11:51:53.396Z,154.05
2024-01-12T11:52:53.455Z,159.41
2024-01-12T11:53:53.799Z,161.76
2024-01-12T11:54:53.602Z,161.46
2024-01-12T11:55:53.720Z,161.90
2024-01-12T11:56:53.707Z,161.68
2024-01-12T11:57:53.781Z,161.25
2024-01-12T11:58:53.834Z,161.32
2024-01-12T11:59:53.933Z,161.79
2024-01-12T12:00:54.049Z,160.86
2024-01-12T12:01:53.921Z,162.71
2024-01-12T12:02:57.189Z,161.17
2024-01-12T12:03:54.083Z,161.20
2024-01-12T12:04:54.094Z,161.22
2024-01-12T12:05:54.159Z,161.36
2024-01-12T12:06:54.297Z,161.28
2024-01-12T12:07:54.623Z,162.44
2024-01-12T12:08:54.347Z,161.86
2024-01-12T12:09:54.068Z,160.29
2024-01-12T12:10:54.238Z,160.87
2024-01-12T12:11:54.120Z,160.21
2024-01-12T12:12:54.053Z,159.33
2024-01-12T12:13:54.233Z,158.15
2024-01-12T12:14:54.095Z,158.91
2024-01-12T12:15:54.050Z,158.15
2024-01-12T12:16:54.032Z,157.63
2024-01-12T12:17:54.187Z,159.50
2024-01-12T12:18:54.339Z,158.93
2024-01-12T12:19:54.072Z,155.39
2024-01-12T12:20:54.075Z,154.78
2024-01-12T12:21:54.042Z,152.38
2024-01-12T12:22:54.113Z,153.30
2024-01-12T12:23:54.372Z,153.54
2024-01-12T12:24:54.097Z,153.56
2024-01-12T12:25:54.181Z,153.77
2024-01-12T12:26:54.175Z,153.57
2024-01-12T12:27:54.136Z,152.92
2024-01-12T12:28:54.234Z,155.03
2024-01-12T12:29:54.142Z,154.21
2024-01-12T12:30:54.174Z,156.09
2024-01-12T12:31:54.170Z,154.90
2024-01-12T12:32:54.317Z,156.25
2024-01-12T12:33:54.941Z,155.46
2024-01-12T12:34:54.356Z,156.50
2024-01-12T12:35:54.352Z,154.26
2024-01-12T12:36:54.369Z,152.23
2024-01-12T12:37:54.464Z,150.98
2024-01-12T12:38:54.561Z,150.34
2024-01-12T12:39:54.730Z,149.55
2024-01-12T12:40:54.549Z,147.89
2024-01-12T12:41:54.625Z,147.54
2024-01-12T12:42:54.777Z,146.04
2024-01-12T12:43:54.673Z,145.19